LTU52Y EKCH-EDDL
Flight info
| Callsign | LTU52Y |
|---|---|
| Flight time | 1h 5m |
| Altitude | 38000 |
| Route | NEXEN T503 GIMRU DCT MICOS DCT KEGAB DCT DENOL T851 HALME HALME1A |
| Aircraft | L101/H-SDFGHIRWXY/S |
Departure
| Time | 2026-05-04 18:07 |
|---|---|
| Airport | Copenhagen Kastrup Airport (EKCH) |
Arrival
| Time | 2026-05-04 19:12 |
|---|---|
| Airport | Düsseldorf Airport (EDDL) |
| Time | Latitude | Longitude | Altitude | Speed | Heading |
|---|---|---|---|---|---|
| 2026-05-04 17:27 | 55.62640 | 12.65068 | 29 ft | 0 kts | 285° |
| 2026-05-04 17:52 | 55.62637 | 12.65088 | 25 ft | 6 kts | 285° |
| 2026-05-04 17:52 | 55.62625 | 12.65146 | 24 ft | 3 kts | 300° |
| 2026-05-04 17:53 | 55.62616 | 12.65164 | 26 ft | 2 kts | 326° |
| 2026-05-04 17:53 | 55.62606 | 12.65172 | 29 ft | 2 kts | 349° |
| 2026-05-04 17:53 | 55.62595 | 12.65174 | 27 ft | 2 kts | 358° |
| 2026-05-04 17:53 | 55.62587 | 12.65174 | 26 ft | 0 kts | 0° |
| 2026-05-04 17:56 | 55.62608 | 12.65179 | 26 ft | 7 kts | 13° |
| 2026-05-04 17:57 | 55.62651 | 12.65280 | 27 ft | 3 kts | 103° |
| 2026-05-04 17:57 | 55.62635 | 12.65316 | 28 ft | 10 kts | 146° |
| 2026-05-04 17:57 | 55.62530 | 12.65332 | 27 ft | 18 kts | 180° |
| 2026-05-04 17:57 | 55.62435 | 12.65242 | 30 ft | 15 kts | 248° |
| 2026-05-04 17:58 | 55.62351 | 12.65189 | 26 ft | 15 kts | 182° |
| 2026-05-04 17:58 | 55.62289 | 12.65185 | 27 ft | 7 kts | 192° |
| 2026-05-04 17:58 | 55.62264 | 12.65126 | 28 ft | 8 kts | 266° |
| 2026-05-04 17:58 | 55.62309 | 12.64990 | 29 ft | 15 kts | 303° |
| 2026-05-04 17:59 | 55.62351 | 12.64837 | 29 ft | 11 kts | 269° |
| 2026-05-04 17:59 | 55.62342 | 12.64773 | 27 ft | 4 kts | 250° |
| 2026-05-04 17:59 | 55.62333 | 12.64738 | 28 ft | 0 kts | 248° |
| 2026-05-04 18:00 | 55.62332 | 12.64733 | 27 ft | 3 kts | 247° |
| 2026-05-04 18:00 | 55.62324 | 12.64699 | 26 ft | 0 kts | 247° |
| 2026-05-04 18:01 | 55.62324 | 12.64698 | 27 ft | 1 kts | 247° |
| 2026-05-04 18:01 | 55.62318 | 12.64675 | 29 ft | 2 kts | 245° |
| 2026-05-04 18:02 | 55.62301 | 12.64609 | 27 ft | 9 kts | 245° |
| 2026-05-04 18:02 | 55.62298 | 12.64599 | 27 ft | 1 kts | 245° |
| 2026-05-04 18:02 | 55.62279 | 12.64523 | 28 ft | 14 kts | 246° |
| 2026-05-04 18:02 | 55.62218 | 12.64364 | 23 ft | 18 kts | 212° |
| 2026-05-04 18:03 | 55.62114 | 12.64272 | 27 ft | 8 kts | 205° |
| 2026-05-04 18:03 | 55.62093 | 12.64254 | 26 ft | 5 kts | 204° |
| 2026-05-04 18:03 | 55.62053 | 12.64221 | 27 ft | 6 kts | 205° |
| 2026-05-04 18:03 | 55.62001 | 12.64178 | 27 ft | 11 kts | 205° |
| 2026-05-04 18:04 | 55.61888 | 12.64088 | 26 ft | 18 kts | 194° |
| 2026-05-04 18:04 | 55.61812 | 12.64074 | 30 ft | 4 kts | 179° |
| 2026-05-04 18:04 | 55.61768 | 12.64077 | 24 ft | 0 kts | 177° |
| 2026-05-04 18:05 | 55.61708 | 12.64082 | 26 ft | 19 kts | 177° |
| 2026-05-04 18:05 | 55.61611 | 12.64042 | 29 ft | 1 kts | 219° |
| 2026-05-04 18:05 | 55.61610 | 12.64040 | 25 ft | 0 kts | 219° |
| 2026-05-04 18:06 | 55.61568 | 12.63976 | 27 ft | 33 kts | 220° |
| 2026-05-04 18:07 | 55.61141 | 12.63315 | 28 ft | 130 kts | 221° |
| 2026-05-04 18:07 | 55.60260 | 12.61995 | 334 ft | 186 kts | 223° |
| 2026-05-04 18:07 | 55.59245 | 12.60549 | 1686 ft | 191 kts | 221° |
| 2026-05-04 18:07 | 55.58186 | 12.59042 | 3039 ft | 196 kts | 222° |
| 2026-05-04 18:08 | 55.57128 | 12.57542 | 4367 ft | 197 kts | 222° |
| 2026-05-04 18:08 | 55.56061 | 12.56037 | 5743 ft | 194 kts | 223° |
| 2026-05-04 18:08 | 55.55007 | 12.54562 | 7068 ft | 190 kts | 223° |
| 2026-05-04 18:08 | 55.53998 | 12.53158 | 8144 ft | 183 kts | 223° |
| 2026-05-04 18:09 | 55.51802 | 12.50071 | 9652 ft | 224 kts | 223° |
| 2026-05-04 18:09 | 55.48930 | 12.46393 | 11622 ft | 279 kts | 216° |
| 2026-05-04 18:10 | 55.47279 | 12.44647 | 12153 ft | 283 kts | 215° |
| 2026-05-04 18:10 | 55.45595 | 12.42834 | 12573 ft | 284 kts | 217° |
| 2026-05-04 18:10 | 55.43840 | 12.40792 | 13072 ft | 321 kts | 218° |
| 2026-05-04 18:10 | 55.41929 | 12.38449 | 13555 ft | 350 kts | 218° |
| 2026-05-04 18:11 | 55.39900 | 12.35950 | 14005 ft | 358 kts | 218° |
| 2026-05-04 18:11 | 55.37849 | 12.33461 | 14436 ft | 362 kts | 218° |
| 2026-05-04 18:11 | 55.35757 | 12.30948 | 14911 ft | 365 kts | 218° |
| 2026-05-04 18:11 | 55.33656 | 12.28422 | 15385 ft | 367 kts | 218° |
| 2026-05-04 18:12 | 55.31565 | 12.25894 | 15861 ft | 370 kts | 218° |
| 2026-05-04 18:12 | 55.29449 | 12.23330 | 16319 ft | 354 kts | 218° |
| 2026-05-04 18:12 | 55.27478 | 12.20965 | 16830 ft | 334 kts | 218° |
| 2026-05-04 18:12 | 55.25600 | 12.18706 | 17347 ft | 330 kts | 219° |
| 2026-05-04 18:13 | 55.23710 | 12.16416 | 17864 ft | 332 kts | 219° |
| 2026-05-04 18:13 | 55.21784 | 12.14068 | 18403 ft | 338 kts | 219° |
| 2026-05-04 18:13 | 55.17938 | 12.09209 | 19538 ft | 345 kts | 220° |
| 2026-05-04 18:14 | 55.15982 | 12.06716 | 20121 ft | 348 kts | 219° |
| 2026-05-04 18:14 | 55.14019 | 12.04232 | 20729 ft | 351 kts | 219° |
| 2026-05-04 18:14 | 55.12022 | 12.01705 | 21344 ft | 354 kts | 220° |
| 2026-05-04 18:15 | 55.07998 | 11.96585 | 22629 ft | 361 kts | 220° |
| 2026-05-04 18:15 | 55.03917 | 11.91383 | 23951 ft | 367 kts | 220° |
| 2026-05-04 18:15 | 55.01831 | 11.88729 | 24641 ft | 370 kts | 220° |
| 2026-05-04 18:16 | 54.99767 | 11.86107 | 25314 ft | 372 kts | 220° |
| 2026-05-04 18:16 | 54.97672 | 11.83449 | 26011 ft | 374 kts | 220° |
| 2026-05-04 18:16 | 54.95542 | 11.80749 | 26731 ft | 377 kts | 220° |
| 2026-05-04 18:17 | 54.91303 | 11.75391 | 27815 ft | 378 kts | 221° |
| 2026-05-04 18:17 | 54.89185 | 11.72715 | 27900 ft | 376 kts | 221° |
| 2026-05-04 18:17 | 54.84968 | 11.67397 | 27948 ft | 374 kts | 221° |
| 2026-05-04 18:18 | 54.82881 | 11.64770 | 27957 ft | 374 kts | 221° |
| 2026-05-04 18:18 | 54.80764 | 11.62114 | 27963 ft | 374 kts | 221° |
| 2026-05-04 18:18 | 54.78644 | 11.59469 | 28028 ft | 372 kts | 221° |
| 2026-05-04 18:18 | 54.76553 | 11.56889 | 28586 ft | 372 kts | 221° |
| 2026-05-04 18:19 | 54.72328 | 11.51654 | 29910 ft | 376 kts | 222° |
| 2026-05-04 18:19 | 54.70190 | 11.48990 | 30455 ft | 377 kts | 221° |
| 2026-05-04 18:19 | 54.68067 | 11.46345 | 31027 ft | 384 kts | 221° |
| 2026-05-04 18:20 | 54.65847 | 11.43575 | 31622 ft | 393 kts | 221° |
| 2026-05-04 18:20 | 54.63613 | 11.40789 | 32223 ft | 407 kts | 221° |
| 2026-05-04 18:20 | 54.61278 | 11.37884 | 32829 ft | 419 kts | 220° |
| 2026-05-04 18:20 | 54.58863 | 11.34890 | 33475 ft | 431 kts | 220° |
| 2026-05-04 18:21 | 54.56405 | 11.31853 | 33809 ft | 449 kts | 219° |
| 2026-05-04 18:21 | 54.53826 | 11.28695 | 33902 ft | 455 kts | 219° |
| 2026-05-04 18:21 | 54.51237 | 11.25572 | 34063 ft | 454 kts | 219° |
| 2026-05-04 18:21 | 54.48631 | 11.22444 | 34432 ft | 454 kts | 219° |
| 2026-05-04 18:22 | 54.46067 | 11.19353 | 34846 ft | 453 kts | 219° |
| 2026-05-04 18:22 | 54.43485 | 11.16222 | 35297 ft | 454 kts | 219° |
| 2026-05-04 18:22 | 54.40916 | 11.13099 | 35742 ft | 456 kts | 219° |
| 2026-05-04 18:22 | 54.38311 | 11.09940 | 36190 ft | 457 kts | 218° |
| 2026-05-04 18:23 | 54.35708 | 11.06790 | 36627 ft | 457 kts | 218° |
| 2026-05-04 18:23 | 54.33156 | 11.03715 | 37943 ft | 445 kts | 218° |
| 2026-05-04 18:23 | 54.30571 | 11.00588 | 37878 ft | 465 kts | 218° |
| 2026-05-04 18:23 | 54.27903 | 10.97405 | 37954 ft | 465 kts | 217° |
| 2026-05-04 18:24 | 54.22571 | 10.91157 | 37965 ft | 465 kts | 217° |
| 2026-05-04 18:24 | 54.17253 | 10.84901 | 37971 ft | 465 kts | 217° |
| 2026-05-04 18:25 | 54.11940 | 10.78641 | 37973 ft | 465 kts | 217° |
| 2026-05-04 18:25 | 54.06606 | 10.72382 | 37963 ft | 454 kts | 217° |
| 2026-05-04 18:26 | 54.04079 | 10.69432 | 37992 ft | 435 kts | 217° |
| 2026-05-04 18:26 | 54.01611 | 10.66553 | 37975 ft | 428 kts | 217° |
| 2026-05-04 18:26 | 53.96704 | 10.60814 | 37977 ft | 428 kts | 217° |
| 2026-05-04 18:27 | 53.91801 | 10.55102 | 37974 ft | 427 kts | 217° |
| 2026-05-04 18:27 | 53.86882 | 10.49392 | 37970 ft | 427 kts | 217° |
| 2026-05-04 18:28 | 53.81970 | 10.43708 | 37966 ft | 427 kts | 217° |
| 2026-05-04 18:28 | 53.77078 | 10.38065 | 37965 ft | 428 kts | 217° |
| 2026-05-04 18:29 | 53.72142 | 10.32386 | 37897 ft | 430 kts | 217° |
| 2026-05-04 18:29 | 53.69647 | 10.29520 | 37361 ft | 431 kts | 217° |
| 2026-05-04 18:29 | 53.67184 | 10.26700 | 36786 ft | 424 kts | 217° |
| 2026-05-04 18:30 | 53.62405 | 10.21246 | 36136 ft | 408 kts | 218° |
| 2026-05-04 18:30 | 53.60055 | 10.18564 | 36026 ft | 406 kts | 218° |
| 2026-05-04 18:31 | 53.55422 | 10.13280 | 35965 ft | 403 kts | 217° |
| 2026-05-04 18:31 | 53.50780 | 10.08007 | 35961 ft | 401 kts | 217° |
| 2026-05-04 18:32 | 53.46170 | 10.02785 | 35983 ft | 401 kts | 217° |
| 2026-05-04 18:32 | 53.41531 | 9.97543 | 35955 ft | 401 kts | 217° |
| 2026-05-04 18:33 | 53.36933 | 9.92363 | 35958 ft | 400 kts | 217° |
| 2026-05-04 18:33 | 53.32287 | 9.87144 | 35962 ft | 400 kts | 217° |
| 2026-05-04 18:34 | 53.27708 | 9.82015 | 35965 ft | 396 kts | 217° |
| 2026-05-04 18:34 | 53.23071 | 9.76829 | 35966 ft | 403 kts | 217° |
| 2026-05-04 18:35 | 53.18409 | 9.71627 | 35966 ft | 405 kts | 217° |
| 2026-05-04 18:35 | 53.13713 | 9.66406 | 35960 ft | 407 kts | 217° |
| 2026-05-04 18:36 | 53.08987 | 9.61165 | 35959 ft | 408 kts | 217° |
| 2026-05-04 18:36 | 53.04269 | 9.55947 | 35956 ft | 408 kts | 217° |
| 2026-05-04 18:37 | 52.99541 | 9.50732 | 35954 ft | 408 kts | 217° |
| 2026-05-04 18:37 | 52.94799 | 9.45516 | 35947 ft | 408 kts | 216° |
| 2026-05-04 18:38 | 52.89864 | 9.40873 | 35950 ft | 411 kts | 209° |
| 2026-05-04 18:38 | 52.84698 | 9.36771 | 35940 ft | 410 kts | 210° |
| 2026-05-04 18:39 | 52.79620 | 9.32577 | 35941 ft | 409 kts | 210° |
| 2026-05-04 18:39 | 52.74513 | 9.28370 | 35941 ft | 409 kts | 210° |
| 2026-05-04 18:40 | 52.69430 | 9.24219 | 35945 ft | 409 kts | 210° |
| 2026-05-04 18:40 | 52.64309 | 9.20044 | 35932 ft | 409 kts | 210° |
| 2026-05-04 18:41 | 52.59207 | 9.15897 | 35937 ft | 410 kts | 209° |
| 2026-05-04 18:41 | 52.57505 | 9.14515 | 35659 ft | 413 kts | 209° |
| 2026-05-04 18:41 | 52.54940 | 9.12436 | 35050 ft | 408 kts | 210° |
| 2026-05-04 18:41 | 52.52411 | 9.10395 | 34448 ft | 400 kts | 210° |
| 2026-05-04 18:42 | 52.49945 | 9.08408 | 33912 ft | 392 kts | 210° |
| 2026-05-04 18:42 | 52.47514 | 9.06449 | 33306 ft | 385 kts | 210° |
| 2026-05-04 18:42 | 52.45111 | 9.04545 | 32712 ft | 381 kts | 209° |
| 2026-05-04 18:42 | 52.42735 | 9.02688 | 32115 ft | 377 kts | 209° |
| 2026-05-04 18:43 | 52.40386 | 9.00800 | 31537 ft | 374 kts | 210° |
| 2026-05-04 18:43 | 52.38072 | 8.98907 | 30977 ft | 371 kts | 210° |
| 2026-05-04 18:43 | 52.35771 | 8.97013 | 30441 ft | 369 kts | 210° |
| 2026-05-04 18:43 | 52.33483 | 8.95134 | 29864 ft | 366 kts | 210° |
| 2026-05-04 18:44 | 52.31219 | 8.93287 | 29264 ft | 363 kts | 209° |
| 2026-05-04 18:44 | 52.29724 | 8.92075 | 28852 ft | 361 kts | 209° |
| 2026-05-04 18:44 | 52.26730 | 8.89668 | 28076 ft | 358 kts | 208° |
| 2026-05-04 18:44 | 52.24438 | 8.87833 | 27578 ft | 373 kts | 208° |
| 2026-05-04 18:45 | 52.22112 | 8.85980 | 27085 ft | 375 kts | 208° |
| 2026-05-04 18:45 | 52.19765 | 8.84120 | 26579 ft | 375 kts | 208° |
| 2026-05-04 18:45 | 52.17416 | 8.82264 | 26092 ft | 374 kts | 208° |
| 2026-05-04 18:45 | 52.15076 | 8.80418 | 25621 ft | 373 kts | 207° |
| 2026-05-04 18:46 | 52.12752 | 8.78585 | 25280 ft | 369 kts | 207° |
| 2026-05-04 18:46 | 52.10424 | 8.76748 | 25116 ft | 369 kts | 207° |
| 2026-05-04 18:46 | 52.08113 | 8.74924 | 25014 ft | 368 kts | 207° |
| 2026-05-04 18:46 | 52.05812 | 8.73105 | 24992 ft | 368 kts | 207° |
| 2026-05-04 18:47 | 52.03503 | 8.71281 | 24976 ft | 368 kts | 207° |
| 2026-05-04 18:47 | 52.01224 | 8.69435 | 24967 ft | 368 kts | 212° |
| 2026-05-04 18:47 | 51.99226 | 8.66853 | 24946 ft | 365 kts | 228° |
| 2026-05-04 18:47 | 51.97760 | 8.63531 | 24965 ft | 366 kts | 240° |
| 2026-05-04 18:48 | 51.96751 | 8.59728 | 24948 ft | 369 kts | 250° |
| 2026-05-04 18:48 | 51.96083 | 8.55710 | 24598 ft | 374 kts | 256° |
| 2026-05-04 18:48 | 51.95624 | 8.51544 | 23986 ft | 373 kts | 259° |
| 2026-05-04 18:48 | 51.95275 | 8.47362 | 23370 ft | 372 kts | 260° |
| 2026-05-04 18:49 | 51.94911 | 8.43249 | 22688 ft | 370 kts | 258° |
| 2026-05-04 18:49 | 51.94452 | 8.39139 | 22018 ft | 367 kts | 256° |
| 2026-05-04 18:49 | 51.93948 | 8.35151 | 21374 ft | 364 kts | 256° |
| 2026-05-04 18:49 | 51.93411 | 8.31124 | 20735 ft | 362 kts | 255° |
| 2026-05-04 18:50 | 51.92873 | 8.27150 | 20114 ft | 360 kts | 255° |
| 2026-05-04 18:50 | 51.92343 | 8.23191 | 19500 ft | 358 kts | 255° |
| 2026-05-04 18:50 | 51.91824 | 8.19242 | 18900 ft | 356 kts | 256° |
| 2026-05-04 18:50 | 51.91328 | 8.15378 | 18318 ft | 354 kts | 256° |
| 2026-05-04 18:51 | 51.90835 | 8.11488 | 17649 ft | 351 kts | 256° |
| 2026-05-04 18:51 | 51.90349 | 8.07611 | 16990 ft | 348 kts | 256° |
| 2026-05-04 18:51 | 51.89871 | 8.03778 | 16340 ft | 345 kts | 256° |
| 2026-05-04 18:51 | 51.89395 | 7.99975 | 15709 ft | 342 kts | 257° |
| 2026-05-04 18:52 | 51.88929 | 7.96256 | 15095 ft | 339 kts | 257° |
| 2026-05-04 18:52 | 51.88458 | 7.92512 | 14482 ft | 336 kts | 257° |
| 2026-05-04 18:52 | 51.87993 | 7.88830 | 14161 ft | 332 kts | 257° |
| 2026-05-04 18:52 | 51.87529 | 7.85169 | 14042 ft | 332 kts | 257° |
| 2026-05-04 18:53 | 51.87062 | 7.81511 | 13996 ft | 332 kts | 257° |
| 2026-05-04 18:53 | 51.86592 | 7.77836 | 13979 ft | 334 kts | 257° |
| 2026-05-04 18:53 | 51.86122 | 7.74179 | 13971 ft | 336 kts | 257° |
| 2026-05-04 18:53 | 51.85628 | 7.70464 | 13969 ft | 336 kts | 254° |
| 2026-05-04 18:54 | 51.84886 | 7.66892 | 13971 ft | 335 kts | 246° |
| 2026-05-04 18:54 | 51.83889 | 7.63514 | 13968 ft | 336 kts | 241° |
| 2026-05-04 18:54 | 51.82758 | 7.60201 | 13964 ft | 337 kts | 239° |
| 2026-05-04 18:54 | 51.81608 | 7.56881 | 13960 ft | 337 kts | 240° |
| 2026-05-04 18:55 | 51.80510 | 7.53520 | 13976 ft | 337 kts | 242° |
| 2026-05-04 18:55 | 51.78494 | 7.46756 | 13963 ft | 335 kts | 243° |
| 2026-05-04 18:55 | 51.77513 | 7.43351 | 13959 ft | 335 kts | 243° |
| 2026-05-04 18:56 | 51.76521 | 7.39940 | 13967 ft | 334 kts | 243° |
| 2026-05-04 18:56 | 51.75517 | 7.36545 | 13959 ft | 334 kts | 243° |
| 2026-05-04 18:56 | 51.74513 | 7.33194 | 13972 ft | 334 kts | 242° |
| 2026-05-04 18:56 | 51.73515 | 7.29886 | 13944 ft | 311 kts | 242° |
| 2026-05-04 18:57 | 51.72625 | 7.26927 | 13599 ft | 282 kts | 243° |
| 2026-05-04 18:57 | 51.71807 | 7.24208 | 13326 ft | 258 kts | 242° |
| 2026-05-04 18:57 | 51.71052 | 7.21706 | 12969 ft | 237 kts | 242° |
| 2026-05-04 18:57 | 51.70364 | 7.19418 | 12682 ft | 218 kts | 244° |
| 2026-05-04 18:58 | 51.69785 | 7.17221 | 12317 ft | 206 kts | 247° |
| 2026-05-04 18:58 | 51.69306 | 7.15131 | 11910 ft | 198 kts | 249° |
| 2026-05-04 18:58 | 51.68829 | 7.13024 | 11267 ft | 201 kts | 244° |
| 2026-05-04 18:58 | 51.68124 | 7.11021 | 10573 ft | 207 kts | 234° |
| 2026-05-04 18:59 | 51.67274 | 7.09211 | 10242 ft | 195 kts | 229° |
| 2026-05-04 18:59 | 51.66432 | 7.07596 | 9848 ft | 189 kts | 229° |
| 2026-05-04 18:59 | 51.65566 | 7.05936 | 9154 ft | 197 kts | 229° |
| 2026-05-04 18:59 | 51.64692 | 7.04212 | 8509 ft | 200 kts | 230° |
| 2026-05-04 19:00 | 51.63823 | 7.02533 | 8168 ft | 194 kts | 230° |
| 2026-05-04 19:00 | 51.62895 | 7.00616 | 8596 ft | 244 kts | 232° |
| 2026-05-04 19:00 | 51.61778 | 6.98206 | 9284 ft | 293 kts | 233° |
| 2026-05-04 19:00 | 51.60568 | 6.95570 | 9134 ft | 287 kts | 233° |
| 2026-05-04 19:01 | 51.59445 | 6.93140 | 8903 ft | 255 kts | 227° |
| 2026-05-04 19:01 | 51.58121 | 6.91423 | 8787 ft | 244 kts | 203° |
| 2026-05-04 19:01 | 51.56490 | 6.90782 | 8679 ft | 242 kts | 182° |
| 2026-05-04 19:01 | 51.54805 | 6.91052 | 8572 ft | 244 kts | 165° |
| 2026-05-04 19:02 | 51.53244 | 6.92060 | 8377 ft | 244 kts | 152° |
| 2026-05-04 19:02 | 51.51965 | 6.93828 | 8110 ft | 244 kts | 125° |
| 2026-05-04 19:02 | 51.51369 | 6.96373 | 7768 ft | 247 kts | 96° |
| 2026-05-04 19:02 | 51.51608 | 6.99074 | 7318 ft | 249 kts | 69° |
| 2026-05-04 19:03 | 51.52442 | 7.01539 | 7000 ft | 253 kts | 58° |
| 2026-05-04 19:03 | 51.53463 | 7.03861 | 6633 ft | 254 kts | 54° |
| 2026-05-04 19:03 | 51.54536 | 7.06133 | 6238 ft | 252 kts | 57° |
| 2026-05-04 19:03 | 51.55204 | 7.08658 | 5778 ft | 247 kts | 85° |
| 2026-05-04 19:04 | 51.55022 | 7.11312 | 5434 ft | 236 kts | 116° |
| 2026-05-04 19:04 | 51.54116 | 7.13487 | 5105 ft | 233 kts | 135° |
| 2026-05-04 19:04 | 51.52973 | 7.15290 | 4784 ft | 233 kts | 141° |
| 2026-05-04 19:04 | 51.51637 | 7.16701 | 4320 ft | 228 kts | 164° |
| 2026-05-04 19:05 | 51.50091 | 7.16850 | 3907 ft | 221 kts | 191° |
| 2026-05-04 19:05 | 51.48588 | 7.16209 | 3719 ft | 225 kts | 199° |
| 2026-05-04 19:05 | 51.47246 | 7.14938 | 3446 ft | 225 kts | 224° |
| 2026-05-04 19:05 | 51.46310 | 7.12960 | 3240 ft | 226 kts | 236° |
| 2026-05-04 19:06 | 51.45446 | 7.10845 | 3119 ft | 227 kts | 234° |
| 2026-05-04 19:06 | 51.44516 | 7.08835 | 3030 ft | 226 kts | 231° |
| 2026-05-04 19:06 | 51.43576 | 7.06892 | 2978 ft | 207 kts | 231° |
| 2026-05-04 19:06 | 51.42774 | 7.05201 | 3075 ft | 179 kts | 231° |
| 2026-05-04 19:07 | 51.42032 | 7.03631 | 3067 ft | 177 kts | 231° |
| 2026-05-04 19:07 | 51.41294 | 7.02070 | 2980 ft | 174 kts | 231° |
| 2026-05-04 19:07 | 51.40565 | 7.00530 | 2987 ft | 174 kts | 231° |
| 2026-05-04 19:07 | 51.39835 | 6.98990 | 3101 ft | 174 kts | 231° |
| 2026-05-04 19:08 | 51.39098 | 6.97436 | 3065 ft | 175 kts | 231° |
| 2026-05-04 19:08 | 51.38369 | 6.95897 | 2885 ft | 175 kts | 231° |
| 2026-05-04 19:08 | 51.37631 | 6.94341 | 2708 ft | 173 kts | 231° |
| 2026-05-04 19:08 | 51.36909 | 6.92819 | 2501 ft | 173 kts | 231° |
| 2026-05-04 19:09 | 51.36186 | 6.91296 | 2255 ft | 169 kts | 231° |
| 2026-05-04 19:09 | 51.35470 | 6.89790 | 2035 ft | 169 kts | 231° |
| 2026-05-04 19:09 | 51.34776 | 6.88329 | 1805 ft | 162 kts | 231° |
| 2026-05-04 19:09 | 51.34100 | 6.86908 | 1672 ft | 160 kts | 230° |
| 2026-05-04 19:10 | 51.33445 | 6.85529 | 1380 ft | 149 kts | 230° |
| 2026-05-04 19:10 | 51.32927 | 6.84438 | 1219 ft | 143 kts | 229° |
| 2026-05-04 19:10 | 51.32321 | 6.83168 | 1038 ft | 144 kts | 230° |
| 2026-05-04 19:10 | 51.31713 | 6.81891 | 830 ft | 144 kts | 230° |
| 2026-05-04 19:11 | 51.31117 | 6.80631 | 652 ft | 140 kts | 228° |
| 2026-05-04 19:11 | 51.30522 | 6.79399 | 476 ft | 141 kts | 230° |
| 2026-05-04 19:11 | 51.29911 | 6.78131 | 244 ft | 145 kts | 230° |
| 2026-05-04 19:11 | 51.29339 | 6.76914 | 137 ft | 125 kts | 232° |
| 2026-05-04 19:12 | 51.28914 | 6.76011 | 134 ft | 84 kts | 231° |
| 2026-05-04 19:12 | 51.28386 | 6.74958 | 121 ft | 23 kts | 191° |
| 2026-05-04 19:12 | 51.28255 | 6.75019 | 124 ft | 21 kts | 155° |
| 2026-05-04 19:13 | 51.28133 | 6.75113 | 126 ft | 14 kts | 153° |
| 2026-05-04 19:13 | 51.28107 | 6.75134 | 128 ft | 0 kts | 153° |
| 2026-05-04 19:13 | 51.28042 | 6.75188 | 124 ft | 17 kts | 153° |
| 2026-05-04 19:14 | 51.27926 | 6.75282 | 125 ft | 20 kts | 154° |
| 2026-05-04 19:14 | 51.27883 | 6.75315 | 127 ft | 0 kts | 155° |
| 2026-05-04 19:15 | 51.27879 | 6.75318 | 126 ft | 3 kts | 155° |
| 2026-05-04 19:15 | 51.27845 | 6.75376 | 127 ft | 10 kts | 107° |
| 2026-05-04 19:16 | 51.27877 | 6.75498 | 126 ft | 14 kts | 54° |
| 2026-05-04 19:16 | 51.27944 | 6.75633 | 134 ft | 17 kts | 52° |
| 2026-05-04 19:16 | 51.27991 | 6.75779 | 134 ft | 13 kts | 105° |
| 2026-05-04 19:16 | 51.27938 | 6.75819 | 134 ft | 9 kts | 179° |
| 2026-05-04 19:17 | 51.27865 | 6.75816 | 134 ft | 9 kts | 181° |
| 2026-05-04 19:17 | 51.27796 | 6.75814 | 134 ft | 10 kts | 181° |
| 2026-05-04 19:17 | 51.27742 | 6.75811 | 135 ft | 6 kts | 186° |
| 2026-05-04 19:17 | 51.27719 | 6.75787 | 135 ft | 0 kts | 233° |
| 2026-05-04 19:18 | 51.27715 | 6.75766 | 134 ft | 4 kts | 259° |
| 2026-05-04 19:18 | 51.27716 | 6.75711 | 135 ft | 6 kts | 271° |
| 2026-05-04 19:18 | 51.27717 | 6.75691 | 135 ft | 0 kts | 272° |